sensor_id;sensor_type;location;lat;lon;timestamp;temperature;humidity
73572;DHT22;61854;48.510;-2.770;2022-09-24T00:01:59;14.30;94.20
73572;DHT22;61854;48.510;-2.770;2022-09-24T00:04:25;14.30;94.40
73572;DHT22;61854;48.510;-2.770;2022-09-24T00:06:52;14.30;94.80
73572;DHT22;61854;48.510;-2.770;2022-09-24T00:09:19;14.30;94.10
73572;DHT22;61854;48.510;-2.770;2022-09-24T00:11:47;14.30;94.20
73572;DHT22;61854;48.510;-2.770;2022-09-24T00:14:15;14.30;94.20
73572;DHT22;61854;48.510;-2.770;2022-09-24T00:16:42;14.30;94.20
73572;DHT22;61854;48.510;-2.770;2022-09-24T00:19:11;14.30;93.90
73572;DHT22;61854;48.510;-2.770;2022-09-24T00:21:38;14.40;94.30
73572;DHT22;61854;48.510;-2.770;2022-09-24T00:24:12;14.40;94.30
73572;DHT22;61854;48.510;-2.770;2022-09-24T00:26:58;14.40;94.20
73572;DHT22;61854;48.510;-2.770;2022-09-24T00:29:24;14.40;94.10
73572;DHT22;61854;48.510;-2.770;2022-09-24T00:31:51;14.50;93.70
73572;DHT22;61854;48.510;-2.770;2022-09-24T00:34:18;14.50;93.60
73572;DHT22;61854;48.510;-2.770;2022-09-24T00:36:44;14.50;94.10
73572;DHT22;61854;48.510;-2.770;2022-09-24T00:39:13;14.60;94.10
73572;DHT22;61854;48.510;-2.770;2022-09-24T00:41:41;14.60;94.10
73572;DHT22;61854;48.510;-2.770;2022-09-24T00:47:29;14.60;93.00
73572;DHT22;61854;48.510;-2.770;2022-09-24T00:52:31;14.60;92.70
73572;DHT22;61854;48.510;-2.770;2022-09-24T00:54:57;14.70;92.60
73572;DHT22;61854;48.510;-2.770;2022-09-24T00:57:23;14.70;92.50
73572;DHT22;61854;48.510;-2.770;2022-09-24T00:59:49;14.70;92.60
73572;DHT22;61854;48.510;-2.770;2022-09-24T01:02:15;14.70;93.40
73572;DHT22;61854;48.510;-2.770;2022-09-24T01:04:41;14.70;93.10
73572;DHT22;61854;48.510;-2.770;2022-09-24T01:07:06;14.70;92.40
73572;DHT22;61854;48.510;-2.770;2022-09-24T01:09:33;14.70;93.10
73572;DHT22;61854;48.510;-2.770;2022-09-24T01:14:55;14.70;93.30
73572;DHT22;61854;48.510;-2.770;2022-09-24T01:17:36;14.70;92.60
73572;DHT22;61854;48.510;-2.770;2022-09-24T01:31:43;14.60;92.60
73572;DHT22;61854;48.510;-2.770;2022-09-24T01:34:14;14.60;92.40
73572;DHT22;61854;48.510;-2.770;2022-09-24T01:36:44;14.60;92.30
73572;DHT22;61854;48.510;-2.770;2022-09-24T01:39:11;14.60;92.90
73572;DHT22;61854;48.510;-2.770;2022-09-24T01:41:40;14.60;93.10
73572;DHT22;61854;48.510;-2.770;2022-09-24T01:44:07;14.60;92.80
73572;DHT22;61854;48.510;-2.770;2022-09-24T01:46:37;14.50;92.80
73572;DHT22;61854;48.510;-2.770;2022-09-24T01:49:03;14.60;92.70
73572;DHT22;61854;48.510;-2.770;2022-09-24T01:51:39;14.50;92.90
73572;DHT22;61854;48.510;-2.770;2022-09-24T01:54:10;14.50;92.90
73572;DHT22;61854;48.510;-2.770;2022-09-24T01:56:43;14.40;92.70
73572;DHT22;61854;48.510;-2.770;2022-09-24T02:01:58;14.30;92.70
73572;DHT22;61854;48.510;-2.770;2022-09-24T02:04:27;14.30;92.90
73572;DHT22;61854;48.510;-2.770;2022-09-24T02:11:56;14.10;93.00
73572;DHT22;61854;48.510;-2.770;2022-09-24T02:14:23;14.00;92.70
73572;DHT22;61854;48.510;-2.770;2022-09-24T02:16:49;14.00;92.90
73572;DHT22;61854;48.510;-2.770;2022-09-24T02:19:22;13.90;92.90
73572;DHT22;61854;48.510;-2.770;2022-09-24T02:21:50;13.90;93.00
73572;DHT22;61854;48.510;-2.770;2022-09-24T02:24:19;13.90;92.90
73572;DHT22;61854;48.510;-2.770;2022-09-24T02:26:47;13.80;93.00
73572;DHT22;61854;48.510;-2.770;2022-09-24T02:29:13;13.80;93.10
73572;DHT22;61854;48.510;-2.770;2022-09-24T02:31:45;13.70;93.00
73572;DHT22;61854;48.510;-2.770;2022-09-24T02:34:15;13.70;93.00
73572;DHT22;61854;48.510;-2.770;2022-09-24T02:36:54;13.70;93.10
73572;DHT22;61854;48.510;-2.770;2022-09-24T02:39:23;13.60;93.20
73572;DHT22;61854;48.510;-2.770;2022-09-24T02:41:50;13.60;93.20
73572;DHT22;61854;48.510;-2.770;2022-09-24T02:44:17;13.60;93.20
73572;DHT22;61854;48.510;-2.770;2022-09-24T02:46:52;13.50;93.20
73572;DHT22;61854;48.510;-2.770;2022-09-24T02:49:18;13.50;93.30
73572;DHT22;61854;48.510;-2.770;2022-09-24T02:51:44;13.50;93.40
73572;DHT22;61854;48.510;-2.770;2022-09-24T02:54:10;13.40;93.40
73572;DHT22;61854;48.510;-2.770;2022-09-24T02:56:36;13.40;93.40
73572;DHT22;61854;48.510;-2.770;2022-09-24T02:59:02;13.40;93.50
73572;DHT22;61854;48.510;-2.770;2022-09-24T03:01:29;13.40;93.50
73572;DHT22;61854;48.510;-2.770;2022-09-24T03:03:54;13.40;93.50
73572;DHT22;61854;48.510;-2.770;2022-09-24T03:06:20;13.40;93.50
73572;DHT22;61854;48.510;-2.770;2022-09-24T03:08:46;13.40;93.50
73572;DHT22;61854;48.510;-2.770;2022-09-24T03:11:12;13.40;93.50
73572;DHT22;61854;48.510;-2.770;2022-09-24T03:13:38;13.40;93.40
73572;DHT22;61854;48.510;-2.770;2022-09-24T03:16:05;13.40;93.40
73572;DHT22;61854;48.510;-2.770;2022-09-24T03:18:32;13.40;93.60
73572;DHT22;61854;48.510;-2.770;2022-09-24T03:21:01;13.50;93.60
73572;DHT22;61854;48.510;-2.770;2022-09-24T03:23:27;13.50;93.60
73572;DHT22;61854;48.510;-2.770;2022-09-24T03:25:53;13.50;93.50
73572;DHT22;61854;48.510;-2.770;2022-09-24T03:28:19;13.50;93.40
73572;DHT22;61854;48.510;-2.770;2022-09-24T03:30:45;13.50;93.30
73572;DHT22;61854;48.510;-2.770;2022-09-24T03:33:30;13.50;93.20
73572;DHT22;61854;48.510;-2.770;2022-09-24T03:36:07;13.50;93.10
73572;DHT22;61854;48.510;-2.770;2022-09-24T03:38:34;13.50;93.10
73572;DHT22;61854;48.510;-2.770;2022-09-24T03:41:04;13.50;93.10
73572;DHT22;61854;48.510;-2.770;2022-09-24T03:43:31;13.50;93.20
73572;DHT22;61854;48.510;-2.770;2022-09-24T03:45:57;13.50;93.20
73572;DHT22;61854;48.510;-2.770;2022-09-24T03:48:23;13.50;93.20
73572;DHT22;61854;48.510;-2.770;2022-09-24T03:50:50;13.50;93.40
73572;DHT22;61854;48.510;-2.770;2022-09-24T03:53:17;13.50;93.40
73572;DHT22;61854;48.510;-2.770;2022-09-24T03:55:44;13.50;93.20
73572;DHT22;61854;48.510;-2.770;2022-09-24T03:58:12;13.40;93.20
73572;DHT22;61854;48.510;-2.770;2022-09-24T04:00:37;13.40;93.20
73572;DHT22;61854;48.510;-2.770;2022-09-24T04:03:04;13.40;93.20
73572;DHT22;61854;48.510;-2.770;2022-09-24T04:05:30;13.40;93.20
73572;DHT22;61854;48.510;-2.770;2022-09-24T04:07:57;13.40;93.40
73572;DHT22;61854;48.510;-2.770;2022-09-24T04:10:23;13.40;93.20
73572;DHT22;61854;48.510;-2.770;2022-09-24T04:12:49;13.30;93.20
73572;DHT22;61854;48.510;-2.770;2022-09-24T04:15:15;13.30;93.10
73572;DHT22;61854;48.510;-2.770;2022-09-24T04:17:52;13.30;93.10
73572;DHT22;61854;48.510;-2.770;2022-09-24T04:20:19;13.20;93.10
73572;DHT22;61854;48.510;-2.770;2022-09-24T04:22:49;13.20;93.10
73572;DHT22;61854;48.510;-2.770;2022-09-24T04:25:15;13.20;93.20
73572;DHT22;61854;48.510;-2.770;2022-09-24T04:27:42;13.20;93.20
73572;DHT22;61854;48.510;-2.770;2022-09-24T04:30:08;13.10;93.20
73572;DHT22;61854;48.510;-2.770;2022-09-24T04:32:34;13.10;93.20
73572;DHT22;61854;48.510;-2.770;2022-09-24T04:35:00;13.10;93.30
73572;DHT22;61854;48.510;-2.770;2022-09-24T04:37:25;13.10;93.30
73572;DHT22;61854;48.510;-2.770;2022-09-24T04:39:51;13.10;93.40
73572;DHT22;61854;48.510;-2.770;2022-09-24T04:42:17;13.10;93.40
73572;DHT22;61854;48.510;-2.770;2022-09-24T04:44:43;13.00;93.40
73572;DHT22;61854;48.510;-2.770;2022-09-24T04:47:14;13.00;93.30
73572;DHT22;61854;48.510;-2.770;2022-09-24T04:49:40;13.00;93.30
73572;DHT22;61854;48.510;-2.770;2022-09-24T04:52:08;13.00;93.40
73572;DHT22;61854;48.510;-2.770;2022-09-24T04:54:34;13.00;93.30
73572;DHT22;61854;48.510;-2.770;2022-09-24T04:56:59;12.90;93.30
73572;DHT22;61854;48.510;-2.770;2022-09-24T04:59:25;12.90;93.30
73572;DHT22;61854;48.510;-2.770;2022-09-24T05:01:51;12.90;93.30
73572;DHT22;61854;48.510;-2.770;2022-09-24T05:04:18;12.90;93.30
73572;DHT22;61854;48.510;-2.770;2022-09-24T05:06:44;12.90;93.30
73572;DHT22;61854;48.510;-2.770;2022-09-24T05:09:12;12.90;93.40
73572;DHT22;61854;48.510;-2.770;2022-09-24T05:11:38;12.90;93.50
73572;DHT22;61854;48.510;-2.770;2022-09-24T05:14:03;12.90;93.50
73572;DHT22;61854;48.510;-2.770;2022-09-24T05:16:30;12.90;94.00
73572;DHT22;61854;48.510;-2.770;2022-09-24T05:18:56;12.90;93.50
73572;DHT22;61854;48.510;-2.770;2022-09-24T05:21:22;12.80;93.50
73572;DHT22;61854;48.510;-2.770;2022-09-24T05:23:48;12.80;93.50
73572;DHT22;61854;48.510;-2.770;2022-09-24T05:26:13;12.80;93.50
73572;DHT22;61854;48.510;-2.770;2022-09-24T05:28:57;12.80;93.50
73572;DHT22;61854;48.510;-2.770;2022-09-24T05:31:23;12.80;93.70
73572;DHT22;61854;48.510;-2.770;2022-09-24T05:33:49;12.80;93.70
73572;DHT22;61854;48.510;-2.770;2022-09-24T05:36:15;12.80;93.60
73572;DHT22;61854;48.510;-2.770;2022-09-24T05:38:40;12.90;93.60
73572;DHT22;61854;48.510;-2.770;2022-09-24T05:41:06;12.90;93.70
73572;DHT22;61854;48.510;-2.770;2022-09-24T05:43:31;12.90;93.50
73572;DHT22;61854;48.510;-2.770;2022-09-24T05:45:57;13.00;93.40
73572;DHT22;61854;48.510;-2.770;2022-09-24T05:48:24;13.00;93.60
73572;DHT22;61854;48.510;-2.770;2022-09-24T05:50:50;13.00;93.40
73572;DHT22;61854;48.510;-2.770;2022-09-24T05:53:20;13.00;93.30
73572;DHT22;61854;48.510;-2.770;2022-09-24T05:55:47;13.10;93.20
73572;DHT22;61854;48.510;-2.770;2022-09-24T05:58:13;13.10;93.40
73572;DHT22;61854;48.510;-2.770;2022-09-24T06:00:39;13.10;93.00
73572;DHT22;61854;48.510;-2.770;2022-09-24T06:03:09;13.10;93.10
73572;DHT22;61854;48.510;-2.770;2022-09-24T06:05:35;13.20;93.10
73572;DHT22;61854;48.510;-2.770;2022-09-24T06:08:05;13.20;93.10
73572;DHT22;61854;48.510;-2.770;2022-09-24T06:10:31;13.20;92.90
73572;DHT22;61854;48.510;-2.770;2022-09-24T06:12:57;13.10;92.90
73572;DHT22;61854;48.510;-2.770;2022-09-24T06:15:23;13.10;93.20
73572;DHT22;61854;48.510;-2.770;2022-09-24T06:17:53;13.10;93.20
73572;DHT22;61854;48.510;-2.770;2022-09-24T06:20:19;13.10;93.10
73572;DHT22;61854;48.510;-2.770;2022-09-24T06:22:48;13.10;93.20
73572;DHT22;61854;48.510;-2.770;2022-09-24T06:25:15;13.20;93.50
73572;DHT22;61854;48.510;-2.770;2022-09-24T06:27:40;13.20;93.40
73572;DHT22;61854;48.510;-2.770;2022-09-24T06:30:06;13.20;93.60
73572;DHT22;61854;48.510;-2.770;2022-09-24T06:32:32;13.30;93.60
73572;DHT22;61854;48.510;-2.770;2022-09-24T06:34:58;13.30;93.50
73572;DHT22;61854;48.510;-2.770;2022-09-24T06:37:23;13.30;93.50
73572;DHT22;61854;48.510;-2.770;2022-09-24T06:39:49;13.30;93.30
73572;DHT22;61854;48.510;-2.770;2022-09-24T06:42:14;13.30;93.50
73572;DHT22;61854;48.510;-2.770;2022-09-24T06:44:40;13.30;93.40
73572;DHT22;61854;48.510;-2.770;2022-09-24T06:47:06;13.30;93.40
73572;DHT22;61854;48.510;-2.770;2022-09-24T06:49:32;13.30;93.30
73572;DHT22;61854;48.510;-2.770;2022-09-24T06:51:58;13.30;93.50
73572;DHT22;61854;48.510;-2.770;2022-09-24T06:54:23;13.20;93.40
73572;DHT22;61854;48.510;-2.770;2022-09-24T06:56:49;13.30;93.70
73572;DHT22;61854;48.510;-2.770;2022-09-24T06:59:17;13.30;93.50
73572;DHT22;61854;48.510;-2.770;2022-09-24T07:01:43;13.30;93.50
73572;DHT22;61854;48.510;-2.770;2022-09-24T07:04:10;13.30;93.50
73572;DHT22;61854;48.510;-2.770;2022-09-24T07:06:36;13.40;93.40
73572;DHT22;61854;48.510;-2.770;2022-09-24T07:09:21;13.40;93.70
73572;DHT22;61854;48.510;-2.770;2022-09-24T07:11:46;13.50;93.40
73572;DHT22;61854;48.510;-2.770;2022-09-24T07:14:12;13.50;93.40
73572;DHT22;61854;48.510;-2.770;2022-09-24T07:16:38;13.50;94.00
73572;DHT22;61854;48.510;-2.770;2022-09-24T07:19:04;13.60;93.70
73572;DHT22;61854;48.510;-2.770;2022-09-24T07:21:29;13.60;93.70
73572;DHT22;61854;48.510;-2.770;2022-09-24T07:23:55;13.60;93.50
73572;DHT22;61854;48.510;-2.770;2022-09-24T07:26:21;13.60;93.20
73572;DHT22;61854;48.510;-2.770;2022-09-24T07:28:46;13.60;93.20
73572;DHT22;61854;48.510;-2.770;2022-09-24T07:31:12;13.60;93.20
73572;DHT22;61854;48.510;-2.770;2022-09-24T07:33:38;13.60;93.20
73572;DHT22;61854;48.510;-2.770;2022-09-24T07:36:04;13.50;93.20
73572;DHT22;61854;48.510;-2.770;2022-09-24T07:38:34;13.60;93.30
73572;DHT22;61854;48.510;-2.770;2022-09-24T07:41:01;13.60;93.40
73572;DHT22;61854;48.510;-2.770;2022-09-24T07:43:28;13.60;93.30
73572;DHT22;61854;48.510;-2.770;2022-09-24T07:45:54;13.60;93.20
73572;DHT22;61854;48.510;-2.770;2022-09-24T07:48:21;13.60;93.10
73572;DHT22;61854;48.510;-2.770;2022-09-24T07:50:46;13.60;93.20
73572;DHT22;61854;48.510;-2.770;2022-09-24T07:53:12;13.70;93.20
73572;DHT22;61854;48.510;-2.770;2022-09-24T07:55:39;13.60;93.10
73572;DHT22;61854;48.510;-2.770;2022-09-24T07:58:07;13.70;93.40
73572;DHT22;61854;48.510;-2.770;2022-09-24T08:00:33;13.70;93.00
73572;DHT22;61854;48.510;-2.770;2022-09-24T08:03:01;13.70;92.80
73572;DHT22;61854;48.510;-2.770;2022-09-24T08:05:27;13.70;93.20
73572;DHT22;61854;48.510;-2.770;2022-09-24T08:07:54;13.80;93.20
73572;DHT22;61854;48.510;-2.770;2022-09-24T08:10:20;13.80;93.10
73572;DHT22;61854;48.510;-2.770;2022-09-24T08:12:46;13.80;93.00
73572;DHT22;61854;48.510;-2.770;2022-09-24T08:15:12;13.90;93.20
73572;DHT22;61854;48.510;-2.770;2022-09-24T08:17:37;13.90;92.80
73572;DHT22;61854;48.510;-2.770;2022-09-24T08:20:03;14.00;93.00
73572;DHT22;61854;48.510;-2.770;2022-09-24T08:22:29;14.00;92.90
73572;DHT22;61854;48.510;-2.770;2022-09-24T08:24:56;14.00;92.70
73572;DHT22;61854;48.510;-2.770;2022-09-24T08:27:22;14.10;93.00
73572;DHT22;61854;48.510;-2.770;2022-09-24T08:29:49;14.10;92.80
73572;DHT22;61854;48.510;-2.770;2022-09-24T08:32:15;14.10;92.80
73572;DHT22;61854;48.510;-2.770;2022-09-24T08:34:42;14.10;92.80
73572;DHT22;61854;48.510;-2.770;2022-09-24T08:37:08;14.10;92.70
73572;DHT22;61854;48.510;-2.770;2022-09-24T08:39:34;14.10;92.80
73572;DHT22;61854;48.510;-2.770;2022-09-24T08:42:12;14.00;92.50
73572;DHT22;61854;48.510;-2.770;2022-09-24T08:44:42;14.00;92.60
73572;DHT22;61854;48.510;-2.770;2022-09-24T08:47:43;14.00;92.90
73572;DHT22;61854;48.510;-2.770;2022-09-24T08:53:24;14.00;93.00
73572;DHT22;61854;48.510;-2.770;2022-09-24T08:56:03;13.80;90.00
73572;DHT22;61854;48.510;-2.770;2022-09-24T09:01:47;13.10;88.10
73572;DHT22;61854;48.510;-2.770;2022-09-24T09:04:12;12.80;90.00
73572;DHT22;61854;48.510;-2.770;2022-09-24T09:10:09;12.50;92.20
73572;DHT22;61854;48.510;-2.770;2022-09-24T09:12:37;12.50;92.30
73572;DHT22;61854;48.510;-2.770;2022-09-24T09:20:38;12.50;90.50
73572;DHT22;61854;48.510;-2.770;2022-09-24T09:25:55;12.50;90.70
73572;DHT22;61854;48.510;-2.770;2022-09-24T09:28:21;12.50;91.70
73572;DHT22;61854;48.510;-2.770;2022-09-24T09:30:55;12.50;92.10
73572;DHT22;61854;48.510;-2.770;2022-09-24T09:41:44;12.80;92.50
73572;DHT22;61854;48.510;-2.770;2022-09-24T09:44:35;12.90;92.70
73572;DHT22;61854;48.510;-2.770;2022-09-24T09:47:30;12.80;91.60
73572;DHT22;61854;48.510;-2.770;2022-09-24T09:49:54;12.80;92.70
73572;DHT22;61854;48.510;-2.770;2022-09-24T09:52:26;12.80;93.00
73572;DHT22;61854;48.510;-2.770;2022-09-24T09:54:52;12.90;93.40
73572;DHT22;61854;48.510;-2.770;2022-09-24T09:57:23;12.90;93.90
73572;DHT22;61854;48.510;-2.770;2022-09-24T09:59:53;12.90;94.10
73572;DHT22;61854;48.510;-2.770;2022-09-24T10:02:24;13.00;94.20
73572;DHT22;61854;48.510;-2.770;2022-09-24T10:04:58;13.00;94.50
73572;DHT22;61854;48.510;-2.770;2022-09-24T10:07:25;13.10;94.90
73572;DHT22;61854;48.510;-2.770;2022-09-24T10:10:14;13.10;95.00
73572;DHT22;61854;48.510;-2.770;2022-09-24T10:12:41;13.20;95.00
73572;DHT22;61854;48.510;-2.770;2022-09-24T10:15:17;13.30;95.20
73572;DHT22;61854;48.510;-2.770;2022-09-24T10:17:45;13.30;95.00
73572;DHT22;61854;48.510;-2.770;2022-09-24T10:20:26;13.40;95.00
73572;DHT22;61854;48.510;-2.770;2022-09-24T10:22:56;13.40;94.90
73572;DHT22;61854;48.510;-2.770;2022-09-24T10:25:26;13.40;94.80
73572;DHT22;61854;48.510;-2.770;2022-09-24T10:27:58;13.40;94.70
73572;DHT22;61854;48.510;-2.770;2022-09-24T10:31:12;13.40;94.50
73572;DHT22;61854;48.510;-2.770;2022-09-24T10:33:40;13.30;94.50
73572;DHT22;61854;48.510;-2.770;2022-09-24T10:36:14;13.40;94.90
73572;DHT22;61854;48.510;-2.770;2022-09-24T10:38:40;13.40;94.30
73572;DHT22;61854;48.510;-2.770;2022-09-24T10:43:52;13.50;94.90
73572;DHT22;61854;48.510;-2.770;2022-09-24T10:49:06;13.80;95.60
73572;DHT22;61854;48.510;-2.770;2022-09-24T11:00:21;14.30;94.80
73572;DHT22;61854;48.510;-2.770;2022-09-24T11:02:55;14.50;94.40
73572;DHT22;61854;48.510;-2.770;2022-09-24T11:05:38;14.60;94.30
73572;DHT22;61854;48.510;-2.770;2022-09-24T11:08:15;14.70;93.90
73572;DHT22;61854;48.510;-2.770;2022-09-24T11:11:02;14.80;94.10
73572;DHT22;61854;48.510;-2.770;2022-09-24T11:13:40;14.90;93.70
73572;DHT22;61854;48.510;-2.770;2022-09-24T11:24:51;15.50;93.00
73572;DHT22;61854;48.510;-2.770;2022-09-24T11:27:58;15.60;92.70
73572;DHT22;61854;48.510;-2.770;2022-09-24T11:55:32;16.20;85.20
73572;DHT22;61854;48.510;-2.770;2022-09-24T11:58:05;16.30;86.10
73572;DHT22;61854;48.510;-2.770;2022-09-24T12:00:41;16.20;84.20
73572;DHT22;61854;48.510;-2.770;2022-09-24T12:03:22;16.20;83.40
73572;DHT22;61854;48.510;-2.770;2022-09-24T12:06:10;16.20;84.10
73572;DHT22;61854;48.510;-2.770;2022-09-24T12:08:45;16.30;85.80
73572;DHT22;61854;48.510;-2.770;2022-09-24T12:11:24;16.40;90.20
73572;DHT22;61854;48.510;-2.770;2022-09-24T12:14:05;16.50;86.20
73572;DHT22;61854;48.510;-2.770;2022-09-24T12:16:37;16.50;87.80
73572;DHT22;61854;48.510;-2.770;2022-09-24T12:19:25;16.50;86.30
73572;DHT22;61854;48.510;-2.770;2022-09-24T12:21:52;16.50;86.30
73572;DHT22;61854;48.510;-2.770;2022-09-24T12:24:40;16.50;87.90
73572;DHT22;61854;48.510;-2.770;2022-09-24T12:27:15;16.50;83.70
73572;DHT22;61854;48.510;-2.770;2022-09-24T12:32:58;16.50;85.90
73572;DHT22;61854;48.510;-2.770;2022-09-24T12:35:54;16.30;81.00
73572;DHT22;61854;48.510;-2.770;2022-09-24T12:38:40;16.20;82.80
73572;DHT22;61854;48.510;-2.770;2022-09-24T12:41:18;16.20;86.00
73572;DHT22;61854;48.510;-2.770;2022-09-24T12:44:02;16.10;80.30
73572;DHT22;61854;48.510;-2.770;2022-09-24T12:46:45;16.10;81.10
73572;DHT22;61854;48.510;-2.770;2022-09-24T12:49:34;16.10;82.20
73572;DHT22;61854;48.510;-2.770;2022-09-24T12:52:03;16.00;79.40
73572;DHT22;61854;48.510;-2.770;2022-09-24T12:54:40;15.90;81.40
73572;DHT22;61854;48.510;-2.770;2022-09-24T12:57:19;15.90;78.80
73572;DHT22;61854;48.510;-2.770;2022-09-24T12:59:59;16.00;76.90
73572;DHT22;61854;48.510;-2.770;2022-09-24T13:02:46;16.10;82.60
73572;DHT22;61854;48.510;-2.770;2022-09-24T13:07:53;16.30;75.60
73572;DHT22;61854;48.510;-2.770;2022-09-24T13:10:25;16.50;82.00
73572;DHT22;61854;48.510;-2.770;2022-09-24T13:12:51;16.70;74.10
73572;DHT22;61854;48.510;-2.770;2022-09-24T13:15:34;16.80;76.90
73572;DHT22;61854;48.510;-2.770;2022-09-24T13:20:33;17.80;72.30
73572;DHT22;61854;48.510;-2.770;2022-09-24T13:26:08;19.60;67.40
73572;DHT22;61854;48.510;-2.770;2022-09-24T13:42:20;18.30;72.60
73572;DHT22;61854;48.510;-2.770;2022-09-24T13:45:00;18.80;69.90
73572;DHT22;61854;48.510;-2.770;2022-09-24T13:47:32;19.00;67.70
73572;DHT22;61854;48.510;-2.770;2022-09-24T13:55:32;18.10;69.40
73572;DHT22;61854;48.510;-2.770;2022-09-24T13:57:59;18.00;70.40
73572;DHT22;61854;48.510;-2.770;2022-09-24T14:00:29;18.10;70.20
73572;DHT22;61854;48.510;-2.770;2022-09-24T14:05:41;17.90;71.00
73572;DHT22;61854;48.510;-2.770;2022-09-24T14:08:14;18.10;69.80
73572;DHT22;61854;48.510;-2.770;2022-09-24T14:10:41;18.20;68.20
73572;DHT22;61854;48.510;-2.770;2022-09-24T14:13:25;17.90;69.30
73572;DHT22;61854;48.510;-2.770;2022-09-24T14:15:58;17.80;72.20
73572;DHT22;61854;48.510;-2.770;2022-09-24T14:18:25;17.60;71.20
73572;DHT22;61854;48.510;-2.770;2022-09-24T14:21:10;17.40;70.90
73572;DHT22;61854;48.510;-2.770;2022-09-24T14:24:02;17.40;74.50
73572;DHT22;61854;48.510;-2.770;2022-09-24T14:26:33;17.60;71.70
73572;DHT22;61854;48.510;-2.770;2022-09-24T14:29:04;18.50;71.20
73572;DHT22;61854;48.510;-2.770;2022-09-24T14:31:31;19.30;65.00
73572;DHT22;61854;48.510;-2.770;2022-09-24T14:33:59;19.20;64.30
73572;DHT22;61854;48.510;-2.770;2022-09-24T14:36:26;19.00;64.70
73572;DHT22;61854;48.510;-2.770;2022-09-24T14:38:59;19.40;64.20
73572;DHT22;61854;48.510;-2.770;2022-09-24T14:41:31;20.10;62.90
73572;DHT22;61854;48.510;-2.770;2022-09-24T14:44:05;20.80;59.40
73572;DHT22;61854;48.510;-2.770;2022-09-24T14:46:37;21.60;57.80
73572;DHT22;61854;48.510;-2.770;2022-09-24T14:51:56;22.90;55.80
73572;DHT22;61854;48.510;-2.770;2022-09-24T14:54:36;22.80;56.40
73572;DHT22;61854;48.510;-2.770;2022-09-24T14:59:39;21.20;55.60
73572;DHT22;61854;48.510;-2.770;2022-09-24T15:04:59;21.90;56.70
73572;DHT22;61854;48.510;-2.770;2022-09-24T15:07:27;22.00;51.70
73572;DHT22;61854;48.510;-2.770;2022-09-24T15:09:54;21.70;52.80
73572;DHT22;61854;48.510;-2.770;2022-09-24T15:12:34;21.00;51.80
73572;DHT22;61854;48.510;-2.770;2022-09-24T15:17:46;21.20;54.10
73572;DHT22;61854;48.510;-2.770;2022-09-24T15:20:12;21.00;52.90
73572;DHT22;61854;48.510;-2.770;2022-09-24T15:22:38;21.00;54.30
73572;DHT22;61854;48.510;-2.770;2022-09-24T15:25:04;20.80;57.10
73572;DHT22;61854;48.510;-2.770;2022-09-24T15:27:38;20.20;53.90
73572;DHT22;61854;48.510;-2.770;2022-09-24T15:30:05;19.60;58.80
73572;DHT22;61854;48.510;-2.770;2022-09-24T15:32:32;19.00;59.40
73572;DHT22;61854;48.510;-2.770;2022-09-24T15:35:00;18.70;61.50
73572;DHT22;61854;48.510;-2.770;2022-09-24T15:37:27;19.40;61.90
73572;DHT22;61854;48.510;-2.770;2022-09-24T15:40:03;20.20;59.80
73572;DHT22;61854;48.510;-2.770;2022-09-24T15:42:29;20.30;56.80
73572;DHT22;61854;48.510;-2.770;2022-09-24T15:44:56;19.90;58.20
73572;DHT22;61854;48.510;-2.770;2022-09-24T15:47:22;19.30;60.20
73572;DHT22;61854;48.510;-2.770;2022-09-24T15:49:48;18.80;61.90
73572;DHT22;61854;48.510;-2.770;2022-09-24T15:52:20;19.00;63.40
73572;DHT22;61854;48.510;-2.770;2022-09-24T15:54:55;19.60;60.80
73572;DHT22;61854;48.510;-2.770;2022-09-24T15:57:22;19.90;59.80
73572;DHT22;61854;48.510;-2.770;2022-09-24T15:59:48;20.80;61.30
73572;DHT22;61854;48.510;-2.770;2022-09-24T16:02:26;21.90;56.50
73572;DHT22;61854;48.510;-2.770;2022-09-24T16:04:53;22.00;52.40
73572;DHT22;61854;48.510;-2.770;2022-09-24T16:07:18;21.30;53.80
73572;DHT22;61854;48.510;-2.770;2022-09-24T16:09:44;20.50;57.50
73572;DHT22;61854;48.510;-2.770;2022-09-24T16:12:15;19.80;57.10
73572;DHT22;61854;48.510;-2.770;2022-09-24T16:14:41;19.00;60.00
73572;DHT22;61854;48.510;-2.770;2022-09-24T16:17:06;18.50;62.80
73572;DHT22;61854;48.510;-2.770;2022-09-24T16:19:32;18.00;64.40
73572;DHT22;61854;48.510;-2.770;2022-09-24T16:21:58;17.70;65.10
73572;DHT22;61854;48.510;-2.770;2022-09-24T16:24:24;17.40;66.60
73572;DHT22;61854;48.510;-2.770;2022-09-24T16:26:50;17.20;67.10
73572;DHT22;61854;48.510;-2.770;2022-09-24T16:29:16;16.90;68.50
73572;DHT22;61854;48.510;-2.770;2022-09-24T16:31:43;16.80;67.90
73572;DHT22;61854;48.510;-2.770;2022-09-24T16:34:10;16.70;69.50
73572;DHT22;61854;48.510;-2.770;2022-09-24T16:36:35;16.60;69.20
73572;DHT22;61854;48.510;-2.770;2022-09-24T16:39:01;16.50;70.60
73572;DHT22;61854;48.510;-2.770;2022-09-24T16:41:27;16.40;70.50
73572;DHT22;61854;48.510;-2.770;2022-09-24T16:43:59;16.30;71.00
73572;DHT22;61854;48.510;-2.770;2022-09-24T16:46:24;16.30;72.20
73572;DHT22;61854;48.510;-2.770;2022-09-24T16:48:50;16.20;72.00
73572;DHT22;61854;48.510;-2.770;2022-09-24T16:51:16;16.20;72.10
73572;DHT22;61854;48.510;-2.770;2022-09-24T16:53:42;16.10;72.20
73572;DHT22;61854;48.510;-2.770;2022-09-24T16:56:12;16.10;72.60
73572;DHT22;61854;48.510;-2.770;2022-09-24T16:58:39;16.00;74.50
73572;DHT22;61854;48.510;-2.770;2022-09-24T17:01:10;16.00;73.40
73572;DHT22;61854;48.510;-2.770;2022-09-24T17:03:36;16.00;73.50
73572;DHT22;61854;48.510;-2.770;2022-09-24T17:06:03;16.00;73.70
73572;DHT22;61854;48.510;-2.770;2022-09-24T17:08:34;15.90;74.20
73572;DHT22;61854;48.510;-2.770;2022-09-24T17:11:19;15.90;74.30
73572;DHT22;61854;48.510;-2.770;2022-09-24T17:13:48;15.90;74.50
73572;DHT22;61854;48.510;-2.770;2022-09-24T17:16:14;15.80;74.10
73572;DHT22;61854;48.510;-2.770;2022-09-24T17:18:40;15.80;74.40
73572;DHT22;61854;48.510;-2.770;2022-09-24T17:21:09;15.80;76.10
73572;DHT22;61854;48.510;-2.770;2022-09-24T17:23:36;15.70;74.00
73572;DHT22;61854;48.510;-2.770;2022-09-24T17:26:08;15.70;75.10
73572;DHT22;61854;48.510;-2.770;2022-09-24T17:28:37;15.70;73.80
73572;DHT22;61854;48.510;-2.770;2022-09-24T17:31:03;15.60;75.10
73572;DHT22;61854;48.510;-2.770;2022-09-24T17:33:30;15.60;75.10
73572;DHT22;61854;48.510;-2.770;2022-09-24T17:36:00;15.60;76.20
73572;DHT22;61854;48.510;-2.770;2022-09-24T17:38:29;15.50;76.10
73572;DHT22;61854;48.510;-2.770;2022-09-24T17:41:01;15.50;77.20
73572;DHT22;61854;48.510;-2.770;2022-09-24T17:43:28;15.50;75.80
73572;DHT22;61854;48.510;-2.770;2022-09-24T17:48:37;15.40;75.70
73572;DHT22;61854;48.510;-2.770;2022-09-24T17:51:15;15.40;76.00
73572;DHT22;61854;48.510;-2.770;2022-09-24T17:53:41;15.40;76.50
73572;DHT22;61854;48.510;-2.770;2022-09-24T17:56:10;15.30;77.10
73572;DHT22;61854;48.510;-2.770;2022-09-24T17:58:37;15.30;77.20
73572;DHT22;61854;48.510;-2.770;2022-09-24T18:01:14;15.30;77.50